createdAt,value
2024-05-09T00:00:35.906Z,98.36
2024-05-09T00:03:07.434Z,98.18
2024-05-09T00:05:34.710Z,99.90
2024-05-09T00:08:01.583Z,99.04
2024-05-09T00:10:35.197Z,100.00
2024-05-09T00:13:04.583Z,100.00
2024-05-09T00:15:31.576Z,100.00
2024-05-09T00:17:58.354Z,100.00
2024-05-09T00:20:33.079Z,99.69
2024-05-09T00:23:06.694Z,99.60
2024-05-09T00:25:33.445Z,99.31
2024-05-09T00:28:00.027Z,99.03
2024-05-09T00:30:33.569Z,98.21
2024-05-09T00:33:02.893Z,98.83
2024-05-09T00:35:29.912Z,100.00
2024-05-09T00:37:56.659Z,99.52
2024-05-09T00:40:31.145Z,99.41
2024-05-09T00:43:05.713Z,99.52
2024-05-09T00:45:33.192Z,98.78
2024-05-09T00:48:01.738Z,98.67
2024-05-09T00:50:35.678Z,99.42
2024-05-09T00:53:05.274Z,98.79
2024-05-09T00:55:32.105Z,99.28
2024-05-09T00:57:58.748Z,100.00
2024-05-09T01:00:31.733Z,100.00
2024-05-09T01:03:05.808Z,99.03
2024-05-09T01:05:32.811Z,99.03
2024-05-09T01:07:59.510Z,98.77
2024-05-09T01:10:33.579Z,100.00
2024-05-09T01:13:02.555Z,100.00
2024-05-09T01:15:29.137Z,100.00
2024-05-09T01:17:56.675Z,100.00
2024-05-09T01:20:32.219Z,100.00
2024-05-09T01:23:07.210Z,100.00
2024-05-09T01:25:33.940Z,100.00
2024-05-09T01:28:00.511Z,100.00
2024-05-09T01:30:33.889Z,100.00
2024-05-09T01:33:03.206Z,100.00
2024-05-09T01:35:30.283Z,100.00
2024-05-09T01:37:57.166Z,100.00
2024-05-09T01:40:33.440Z,100.00
2024-05-09T01:43:04.699Z,100.00
2024-05-09T01:45:31.384Z,100.00
2024-05-09T01:47:58.372Z,100.00
2024-05-09T01:50:37.199Z,100.00
2024-05-09T01:53:07.899Z,100.00
2024-05-09T01:55:34.731Z,100.00
2024-05-09T01:58:01.386Z,100.00
2024-05-09T02:00:37.696Z,100.00
2024-05-09T02:03:14.909Z,100.00
2024-05-09T02:05:44.717Z,100.00
2024-05-09T02:08:15.977Z,100.00
2024-05-09T02:10:46.358Z,100.00
2024-05-09T02:13:13.726Z,100.00
2024-05-09T02:15:40.437Z,100.00
2024-05-09T02:18:07.989Z,100.00
2024-05-09T02:20:36.834Z,100.00
2024-05-09T02:23:05.999Z,100.00
2024-05-09T02:25:33.152Z,100.00
2024-05-09T02:28:01.180Z,100.00
2024-05-09T02:30:38.111Z,100.00
2024-05-09T02:33:08.992Z,100.00
2024-05-09T02:35:36.606Z,100.00
2024-05-09T02:38:03.495Z,100.00
2024-05-09T02:40:36.660Z,100.00
2024-05-09T02:43:10.178Z,100.00
2024-05-09T02:45:38.221Z,100.00
2024-05-09T02:48:05.711Z,100.00
2024-05-09T02:50:38.008Z,100.00
2024-05-09T02:53:10.153Z,100.00
2024-05-09T02:55:37.771Z,100.00
2024-05-09T02:58:04.593Z,100.00
2024-05-09T03:00:38.445Z,100.00
2024-05-09T03:03:09.565Z,100.00
2024-05-09T03:05:37.839Z,100.00
2024-05-09T03:08:04.891Z,100.00
2024-05-09T03:10:36.161Z,100.00
2024-05-09T03:13:13.177Z,100.00
2024-05-09T03:15:41.211Z,100.00
2024-05-09T03:18:08.429Z,100.00
2024-05-09T03:20:36.339Z,100.00
2024-05-09T03:23:05.070Z,100.00
2024-05-09T03:25:32.117Z,100.00
2024-05-09T03:27:59.246Z,100.00
2024-05-09T03:30:36.783Z,100.00
2024-05-09T03:33:17.404Z,100.00
2024-05-09T03:35:45.852Z,100.00
2024-05-09T03:38:12.839Z,100.00
2024-05-09T03:40:46.779Z,100.00
2024-05-09T03:43:13.891Z,100.00
2024-05-09T03:45:42.913Z,100.00
2024-05-09T03:48:09.875Z,100.00
2024-05-09T03:50:37.370Z,100.00
2024-05-09T03:53:04.716Z,100.00
2024-05-09T03:55:31.478Z,100.00
2024-05-09T03:57:58.193Z,100.00
2024-05-09T04:00:31.496Z,100.00
2024-05-09T04:03:05.897Z,100.00
2024-05-09T04:05:34.402Z,100.00
2024-05-09T04:08:01.640Z,100.00
2024-05-09T04:10:33.240Z,100.00
2024-05-09T04:13:01.574Z,100.00
2024-05-09T04:15:28.222Z,100.00
2024-05-09T04:17:55.082Z,100.00
2024-05-09T04:20:32.850Z,100.00
2024-05-09T04:23:05.850Z,100.00
2024-05-09T04:25:32.685Z,100.00
2024-05-09T04:27:59.257Z,100.00
2024-05-09T04:30:34.698Z,100.00
2024-05-09T04:33:06.437Z,100.00
2024-05-09T04:35:33.960Z,99.32
2024-05-09T04:38:00.793Z,95.88
2024-05-09T04:40:33.215Z,93.49
2024-05-09T04:43:03.616Z,90.87
2024-05-09T04:45:30.418Z,90.39
2024-05-09T04:47:57.421Z,91.24
2024-05-09T04:50:33.513Z,88.86
2024-05-09T04:53:04.392Z,90.56
2024-05-09T04:55:31.603Z,91.00
2024-05-09T04:57:58.250Z,91.01
2024-05-09T05:00:32.033Z,92.54
2024-05-09T05:03:05.928Z,94.09
2024-05-09T05:05:32.936Z,94.07
2024-05-09T05:07:59.563Z,93.99
2024-05-09T05:10:33.752Z,95.22
2024-05-09T05:13:23.265Z,94.37
2024-05-09T05:15:53.714Z,95.40
2024-05-09T05:18:21.122Z,96.05
2024-05-09T05:20:48.136Z,96.87
2024-05-09T05:23:16.586Z,95.31
2024-05-09T05:25:43.734Z,95.97
2024-05-09T05:28:10.839Z,97.00
2024-05-09T05:30:38.156Z,96.40
2024-05-09T05:33:05.898Z,97.45
2024-05-09T05:35:33.003Z,95.94
2024-05-09T05:38:00.148Z,95.14
2024-05-09T05:40:33.361Z,94.41
2024-05-09T05:43:04.898Z,93.03
2024-05-09T05:45:31.479Z,91.97
2024-05-09T05:47:58.242Z,91.40
2024-05-09T05:50:32.620Z,90.12
2024-05-09T05:53:03.319Z,88.54
2024-05-09T05:55:30.293Z,89.49
2024-05-09T05:57:56.856Z,87.96
2024-05-09T06:00:29.936Z,87.13
2024-05-09T06:03:04.703Z,87.69
2024-05-09T06:05:31.647Z,86.43
2024-05-09T06:07:58.330Z,86.09
2024-05-09T06:10:30.140Z,85.62
2024-05-09T06:13:04.274Z,84.03
2024-05-09T06:15:30.898Z,85.17
2024-05-09T06:17:57.634Z,84.59
2024-05-09T06:20:33.910Z,84.47
2024-05-09T06:23:03.529Z,84.22
2024-05-09T06:25:30.241Z,81.76
2024-05-09T06:27:56.811Z,81.67
2024-05-09T06:30:30.396Z,81.32
2024-05-09T06:33:05.365Z,81.87
2024-05-09T06:35:32.780Z,79.66
2024-05-09T06:37:59.571Z,80.97
2024-05-09T06:40:35.458Z,80.20
2024-05-09T06:43:04.934Z,80.76
2024-05-09T06:45:31.478Z,79.62
2024-05-09T06:47:58.229Z,80.10
2024-05-09T06:50:28.353Z,78.78
2024-05-09T06:52:58.375Z,76.81
2024-05-09T06:55:24.958Z,75.97
2024-05-09T06:57:51.597Z,76.29
2024-05-09T07:00:26.883Z,75.82
2024-05-09T07:02:59.074Z,74.11
2024-05-09T07:05:26.904Z,74.06
2024-05-09T07:07:54.580Z,72.59
2024-05-09T07:10:28.668Z,72.16
2024-05-09T07:12:59.410Z,75.07
2024-05-09T07:15:26.434Z,75.82
2024-05-09T07:17:53.158Z,72.45
2024-05-09T07:20:27.642Z,72.36
2024-05-09T07:23:01.949Z,72.15
2024-05-09T07:25:28.758Z,71.61
2024-05-09T07:27:55.484Z,70.04
2024-05-09T07:30:27.741Z,70.13
2024-05-09T07:33:01.471Z,68.11
2024-05-09T07:35:29.113Z,67.66
2024-05-09T07:37:56.045Z,68.20
2024-05-09T07:42:52.562Z,67.45
2024-05-09T07:45:40.470Z,67.98
2024-05-09T07:53:36.589Z,63.13
2024-05-09T07:55:56.001Z,63.88
2024-05-09T07:58:27.106Z,64.80
2024-05-09T08:00:54.322Z,65.20
2024-05-09T08:03:21.044Z,64.29
2024-05-09T08:05:47.752Z,63.78
2024-05-09T08:08:14.337Z,62.39
2024-05-09T08:10:40.996Z,63.58
2024-05-09T08:13:07.814Z,65.30
2024-05-09T08:15:34.582Z,61.02
2024-05-09T08:18:01.391Z,63.46
2024-05-09T08:20:33.449Z,62.62
2024-05-09T08:23:01.705Z,62.04
2024-05-09T08:25:28.393Z,61.24
2024-05-09T08:27:55.063Z,62.70
2024-05-09T08:30:29.702Z,61.63
2024-05-09T08:33:03.604Z,60.08
2024-05-09T08:35:30.258Z,60.33
2024-05-09T08:37:56.872Z,59.21
2024-05-09T08:40:30.768Z,56.72
2024-05-09T08:43:02.604Z,59.14
2024-05-09T08:45:29.610Z,60.13
2024-05-09T08:47:56.923Z,56.10
2024-05-09T08:50:31.949Z,57.00
2024-05-09T08:53:05.005Z,59.07
2024-05-09T08:55:31.795Z,57.80
2024-05-09T08:57:59.263Z,58.13
2024-05-09T09:00:35.568Z,56.05
2024-05-09T09:03:06.027Z,55.12
2024-05-09T09:05:37.211Z,58.03
2024-05-09T09:08:07.988Z,58.28
2024-05-09T09:10:35.346Z,59.22
2024-05-09T09:13:04.207Z,58.37
2024-05-09T09:15:31.491Z,58.32
2024-05-09T09:17:59.806Z,57.78
2024-05-09T09:20:34.128Z,56.25
2024-05-09T09:23:03.381Z,55.60
2024-05-09T09:25:30.073Z,56.10
2024-05-09T09:27:58.109Z,56.38
2024-05-09T09:30:34.683Z,57.01
2024-05-09T09:33:04.569Z,56.17
2024-05-09T09:35:31.393Z,57.05
2024-05-09T09:38:01.957Z,56.73
2024-05-09T09:40:36.133Z,54.82
2024-05-09T09:43:09.466Z,54.53
2024-05-09T09:45:36.541Z,54.49
2024-05-09T09:48:04.422Z,54.48
2024-05-09T09:50:34.787Z,54.87
2024-05-09T09:53:03.942Z,54.87
2024-05-09T09:55:32.724Z,52.42
2024-05-09T09:57:59.758Z,52.87
2024-05-09T10:00:32.542Z,52.73
2024-05-09T10:03:00.553Z,54.03
2024-05-09T10:05:27.693Z,51.90
2024-05-09T10:07:55.400Z,50.05
2024-05-09T10:10:31.870Z,52.09
2024-05-09T10:13:00.529Z,51.73
2024-05-09T10:15:27.599Z,50.38
2024-05-09T10:17:54.727Z,53.11
2024-05-09T10:20:28.022Z,50.66
2024-05-09T10:22:58.787Z,50.38
2024-05-09T10:25:25.500Z,49.51
2024-05-09T10:27:55.985Z,49.17
2024-05-09T10:30:33.832Z,47.97
2024-05-09T10:33:02.696Z,47.84
2024-05-09T10:35:31.419Z,48.00
2024-05-09T10:38:05.813Z,47.16
2024-05-09T10:40:32.620Z,46.36
2024-05-09T10:43:02.544Z,45.62
2024-05-09T10:45:31.961Z,49.00
2024-05-09T10:47:58.833Z,47.83
2024-05-09T10:50:29.174Z,47.25
2024-05-09T10:53:00.465Z,46.64
2024-05-09T10:55:27.431Z,48.71
2024-05-09T10:57:54.139Z,46.42
2024-05-09T11:00:27.585Z,45.48
2024-05-09T11:03:00.018Z,46.21
2024-05-09T11:05:27.006Z,45.35
2024-05-09T11:07:53.818Z,46.08
2024-05-09T11:10:27.422Z,43.40
2024-05-09T11:12:58.540Z,46.00
2024-05-09T11:15:25.879Z,45.17
2024-05-09T11:17:53.064Z,43.75
2024-05-09T11:20:26.720Z,44.57
2024-05-09T11:22:57.761Z,47.43
2024-05-09T11:25:24.454Z,47.40
2024-05-09T11:27:51.180Z,45.30
2024-05-09T11:30:26.704Z,47.28
2024-05-09T11:32:58.796Z,44.84
2024-05-09T11:35:26.464Z,43.29
2024-05-09T11:37:53.059Z,44.98
2024-05-09T11:40:25.435Z,45.51
2024-05-09T11:42:55.292Z,44.91
2024-05-09T11:45:22.044Z,44.53
2024-05-09T11:47:48.954Z,43.29
2024-05-09T11:50:22.621Z,43.79
2024-05-09T11:52:56.059Z,43.94
2024-05-09T11:55:27.391Z,46.32
2024-05-09T11:57:55.016Z,46.92
2024-05-09T12:00:29.514Z,47.31
2024-05-09T12:03:04.770Z,47.08
2024-05-09T12:05:32.064Z,45.17
2024-05-09T12:07:58.942Z,46.04
2024-05-09T12:10:32.709Z,46.64
2024-05-09T12:13:02.019Z,46.25
2024-05-09T12:15:28.954Z,46.68
2024-05-09T12:17:58.207Z,43.87
2024-05-09T12:20:34.776Z,45.54
2024-05-09T12:23:04.718Z,46.16
2024-05-09T12:25:31.317Z,46.09
2024-05-09T12:27:57.912Z,46.82
2024-05-09T12:30:34.437Z,45.02
2024-05-09T12:33:05.052Z,45.25
2024-05-09T12:35:31.924Z,43.93
2024-05-09T12:37:58.660Z,43.81
2024-05-09T12:40:34.311Z,44.24
2024-05-09T12:43:04.892Z,45.27
2024-05-09T12:45:31.986Z,45.08
2024-05-09T12:47:58.848Z,43.91
2024-05-09T12:50:31.950Z,43.39
2024-05-09T12:53:01.112Z,44.32
2024-05-09T12:55:28.600Z,44.21
2024-05-09T12:57:58.299Z,43.39
2024-05-09T13:00:31.425Z,42.97
2024-05-09T13:03:01.144Z,43.58
2024-05-09T13:05:28.287Z,42.95
2024-05-09T13:07:56.689Z,43.15
2024-05-09T13:10:30.744Z,41.30
2024-05-09T13:13:00.103Z,42.56
2024-05-09T13:15:27.235Z,42.70
2024-05-09T13:17:54.809Z,42.23
2024-05-09T13:20:29.552Z,43.92
2024-05-09T13:23:01.383Z,42.35
2024-05-09T13:25:28.111Z,43.32
2024-05-09T13:27:54.979Z,44.00
2024-05-09T13:30:29.324Z,41.55
2024-05-09T13:33:04.838Z,42.13
2024-05-09T13:35:32.130Z,41.61
2024-05-09T13:38:01.500Z,41.99
2024-05-09T13:40:33.465Z,41.10
2024-05-09T13:43:02.813Z,41.37
2024-05-09T13:45:29.581Z,43.45
2024-05-09T13:47:57.095Z,41.65
2024-05-09T13:50:32.922Z,43.38
2024-05-09T13:53:02.499Z,40.84
2024-05-09T13:55:29.091Z,42.05
2024-05-09T13:57:56.018Z,42.47
2024-05-09T14:00:32.458Z,44.92
2024-05-09T14:03:09.569Z,41.75
2024-05-09T14:05:36.560Z,41.64
2024-05-09T14:08:03.378Z,43.36
2024-05-09T14:10:31.925Z,41.24
2024-05-09T14:12:59.914Z,40.70
2024-05-09T14:15:26.756Z,43.13
2024-05-09T14:17:53.846Z,40.30
2024-05-09T14:20:30.063Z,39.84
2024-05-09T14:22:58.980Z,41.57
2024-05-09T14:25:28.286Z,43.64
2024-05-09T14:27:55.766Z,45.02
2024-05-09T14:30:30.410Z,40.77
2024-05-09T14:33:03.156Z,40.83
2024-05-09T14:35:29.826Z,41.79
2024-05-09T14:37:56.375Z,40.92
2024-05-09T14:40:35.882Z,41.09
2024-05-09T14:43:07.753Z,41.23
2024-05-09T14:45:34.659Z,40.53
2024-05-09T14:48:02.248Z,40.59
2024-05-09T14:50:36.177Z,42.35
2024-05-09T14:53:10.078Z,42.97
2024-05-09T14:55:38.712Z,42.81
2024-05-09T14:58:07.224Z,41.39
2024-05-09T15:00:38.382Z,41.35
2024-05-09T15:03:06.681Z,42.24
2024-05-09T15:05:33.405Z,40.80
2024-05-09T15:08:00.188Z,39.55
2024-05-09T15:10:34.132Z,40.41
2024-05-09T15:13:04.041Z,40.44
2024-05-09T15:15:31.071Z,40.63
2024-05-09T15:17:58.788Z,41.05
2024-05-09T15:20:33.067Z,40.26
2024-05-09T15:23:02.560Z,40.49
2024-05-09T15:25:29.427Z,41.38
2024-05-09T15:27:56.351Z,40.69
2024-05-09T15:30:30.344Z,40.11
2024-05-09T15:32:59.621Z,41.39
2024-05-09T15:35:26.305Z,43.65
2024-05-09T15:37:52.862Z,39.33
2024-05-09T15:40:30.383Z,38.37
2024-05-09T15:43:04.379Z,40.29
2024-05-09T15:45:31.058Z,39.66
2024-05-09T15:47:57.933Z,39.61
2024-05-09T15:50:36.506Z,39.26
2024-05-09T15:53:07.172Z,38.10
2024-05-09T15:55:34.893Z,39.12
2024-05-09T15:58:02.278Z,40.44
2024-05-09T16:00:37.210Z,40.68
2024-05-09T16:03:07.737Z,40.21
2024-05-09T16:05:34.739Z,37.75
2024-05-09T16:08:01.643Z,37.24
2024-05-09T16:10:32.674Z,38.39
2024-05-09T16:13:01.275Z,38.86
2024-05-09T16:15:28.038Z,39.36
2024-05-09T16:17:55.309Z,40.10
2024-05-09T16:20:33.711Z,39.64
2024-05-09T16:23:05.984Z,39.11
2024-05-09T16:25:32.662Z,41.57
2024-05-09T16:27:59.552Z,40.69
2024-05-09T16:30:33.499Z,39.21
2024-05-09T16:33:02.683Z,39.53
2024-05-09T16:35:29.600Z,39.53
2024-05-09T16:37:56.183Z,40.57
2024-05-09T16:40:30.314Z,40.25
2024-05-09T16:43:04.852Z,41.83
2024-05-09T16:45:31.922Z,41.45
2024-05-09T16:47:59.647Z,41.57
2024-05-09T16:50:31.888Z,42.48
2024-05-09T16:53:00.465Z,43.86
2024-05-09T16:55:27.362Z,42.60
2024-05-09T16:57:54.411Z,42.64
2024-05-09T17:00:31.384Z,43.42
2024-05-09T17:03:06.780Z,43.80
2024-05-09T17:05:34.301Z,44.59
2024-05-09T17:08:01.439Z,43.26
2024-05-09T17:10:32.841Z,43.37
2024-05-09T17:13:02.012Z,44.88
2024-05-09T17:15:28.770Z,44.35
2024-05-09T17:17:55.651Z,45.34
2024-05-09T17:20:29.578Z,45.58
2024-05-09T17:23:01.584Z,44.50
2024-05-09T17:25:28.366Z,45.29
2024-05-09T17:27:55.244Z,45.11
2024-05-09T17:30:29.075Z,45.69
2024-05-09T17:33:02.429Z,45.58
2024-05-09T17:35:29.153Z,46.55
2024-05-09T17:37:56.071Z,46.25
2024-05-09T17:40:30.940Z,48.47
2024-05-09T17:43:01.477Z,46.76
2024-05-09T17:45:28.293Z,47.84
2024-05-09T17:47:55.173Z,46.62
2024-05-09T17:50:27.929Z,46.93
2024-05-09T17:53:01.021Z,47.09
2024-05-09T17:55:28.470Z,47.91
2024-05-09T17:57:55.448Z,47.77
2024-05-09T18:00:32.702Z,48.37
2024-05-09T18:03:05.293Z,48.58
2024-05-09T18:05:32.282Z,49.16
2024-05-09T18:07:59.146Z,50.06
2024-05-09T18:10:33.083Z,50.69
2024-05-09T18:13:05.798Z,50.41
2024-05-09T18:15:33.070Z,51.51
2024-05-09T18:18:00.132Z,51.78
2024-05-09T18:20:37.330Z,51.93
2024-05-09T18:23:10.207Z,52.83
2024-05-09T18:25:36.812Z,52.88
2024-05-09T18:28:03.566Z,53.55
2024-05-09T18:30:34.938Z,53.60
2024-05-09T18:33:08.169Z,53.85
2024-05-09T18:35:36.232Z,54.83
2024-05-09T18:38:03.316Z,54.98
2024-05-09T18:40:34.813Z,56.03
2024-05-09T18:43:05.641Z,57.21
2024-05-09T18:45:33.668Z,57.79
2024-05-09T18:48:00.648Z,57.74
2024-05-09T18:50:34.904Z,57.96
2024-05-09T18:53:10.179Z,58.13
2024-05-09T18:55:37.258Z,58.64
2024-05-09T18:58:04.579Z,58.73
2024-05-09T19:00:35.957Z,59.83
2024-05-09T19:03:10.927Z,60.52
2024-05-09T19:05:40.655Z,60.41
2024-05-09T19:08:08.428Z,61.33
2024-05-09T19:10:36.915Z,61.21
2024-05-09T19:13:08.612Z,61.66
2024-05-09T19:15:39.346Z,61.21
2024-05-09T19:18:06.662Z,61.86
2024-05-09T19:20:35.365Z,64.08
2024-05-09T19:23:03.613Z,63.91
2024-05-09T19:25:30.528Z,65.33
2024-05-09T19:27:57.257Z,66.02
2024-05-09T19:30:32.896Z,66.10
2024-05-09T19:33:06.150Z,66.58
2024-05-09T19:35:33.068Z,66.89
2024-05-09T19:37:59.913Z,69.81
2024-05-09T19:40:31.459Z,67.71
2024-05-09T19:43:00.677Z,69.52
2024-05-09T19:45:27.521Z,69.98
2024-05-09T19:47:54.437Z,69.70
2024-05-09T19:50:30.166Z,70.81
2024-05-09T19:53:03.203Z,69.65
2024-05-09T19:55:29.880Z,70.32
2024-05-09T19:57:56.935Z,70.21
2024-05-09T20:00:32.325Z,69.73
2024-05-09T20:03:02.553Z,69.62
2024-05-09T20:05:31.107Z,71.29
2024-05-09T20:07:57.996Z,71.05
2024-05-09T20:10:29.915Z,73.78
2024-05-09T20:12:59.652Z,74.98
2024-05-09T20:15:26.431Z,74.50
2024-05-09T20:17:53.827Z,73.98
2024-05-09T20:20:28.696Z,73.59
2024-05-09T20:23:03.137Z,73.91
2024-05-09T20:25:29.883Z,74.39
2024-05-09T20:27:56.473Z,76.23
2024-05-09T20:30:30.535Z,76.53
2024-05-09T20:32:59.793Z,76.47
2024-05-09T20:35:26.798Z,77.41
2024-05-09T20:37:53.503Z,79.85
2024-05-09T20:40:28.324Z,77.79
2024-05-09T20:42:59.180Z,77.38
2024-05-09T20:45:25.972Z,77.29
2024-05-09T20:47:53.082Z,76.72
2024-05-09T20:50:28.436Z,78.62
2024-05-09T20:53:02.886Z,77.70
2024-05-09T20:55:29.922Z,80.51
2024-05-09T20:57:56.961Z,80.02
2024-05-09T21:00:30.296Z,80.99
2024-05-09T21:03:05.736Z,81.59
2024-05-09T21:05:32.725Z,82.99
2024-05-09T21:07:59.401Z,81.65
2024-05-09T21:10:27.081Z,81.06
2024-05-09T21:12:54.104Z,81.39
2024-05-09T21:15:20.675Z,81.44
2024-05-09T21:17:47.317Z,82.74
2024-05-09T21:20:20.685Z,81.41
2024-05-09T21:22:50.970Z,81.28
2024-05-09T21:25:17.588Z,82.45
2024-05-09T21:27:44.297Z,82.81
2024-05-09T21:30:18.434Z,82.16
2024-05-09T21:32:49.919Z,82.54
2024-05-09T21:35:17.790Z,83.79
2024-05-09T21:37:44.517Z,85.17
2024-05-09T21:40:13.938Z,84.96
2024-05-09T21:42:48.173Z,86.39
2024-05-09T21:45:14.964Z,86.55
2024-05-09T21:47:41.827Z,86.84
2024-05-09T21:50:12.465Z,85.65
2024-05-09T21:52:41.912Z,86.88
2024-05-09T21:55:08.848Z,85.23
2024-05-09T21:57:35.511Z,84.88
2024-05-09T22:00:02.277Z,83.59
2024-05-09T22:02:29.056Z,85.75
2024-05-09T22:04:55.948Z,86.45
2024-05-09T22:07:23.631Z,88.40
2024-05-09T22:09:50.323Z,87.47
2024-05-09T22:12:16.910Z,88.58
2024-05-09T22:14:43.490Z,88.25
2024-05-09T22:17:10.064Z,89.99
2024-05-09T22:19:36.765Z,90.03
2024-05-09T22:22:03.726Z,90.42
2024-05-09T22:24:30.370Z,91.48
2024-05-09T22:26:56.974Z,91.12
2024-05-09T22:29:23.614Z,91.28
2024-05-09T22:31:50.162Z,88.92
2024-05-09T22:34:18.285Z,90.36
2024-05-09T22:36:44.945Z,89.82
2024-05-09T22:39:11.632Z,89.94
2024-05-09T22:41:40.343Z,90.79
2024-05-09T22:44:06.927Z,90.98
2024-05-09T22:46:33.589Z,92.72
2024-05-09T22:49:00.295Z,90.52
2024-05-09T22:51:26.962Z,91.03
2024-05-09T22:53:53.530Z,89.89
2024-05-09T22:56:27.473Z,89.05
2024-05-09T22:58:54.479Z,87.92
2024-05-09T23:01:22.309Z,90.22
2024-05-09T23:03:50.411Z,88.36
2024-05-09T23:06:17.096Z,89.73
2024-05-09T23:08:43.642Z,92.39
2024-05-09T23:11:10.416Z,91.91
2024-05-09T23:13:37.012Z,93.42
2024-05-09T23:16:03.786Z,91.89
2024-05-09T23:18:30.553Z,92.32
2024-05-09T23:20:57.171Z,91.82
2024-05-09T23:23:23.723Z,92.65
2024-05-09T23:25:50.471Z,92.42
2024-05-09T23:28:17.039Z,90.63
2024-05-09T23:30:43.749Z,89.65
2024-05-09T23:33:12.410Z,90.69
2024-05-09T23:35:41.551Z,92.47
2024-05-09T23:38:08.130Z,92.71
2024-05-09T23:40:38.925Z,94.98
2024-05-09T23:43:11.494Z,94.10
2024-05-09T23:45:39.241Z,92.83
2024-05-09T23:48:06.731Z,92.35
2024-05-09T23:50:36.708Z,91.84
2024-05-09T23:53:06.963Z,92.74
2024-05-09T23:55:34.831Z,94.54
2024-05-09T23:58:01.595Z,95.67
